• Join FlightAware (Why Join?)
  • Login
  • US Flag 
05:44PM EST


 

Airport Tracker/Info


-or-


 

Live Flight TrackerFlight Track Log ✈ UAL906 ✈ 14-Jun-2013 ✈ EDDF / FRA - KORD

Flight Track Log - Related Links

Times and Time Zones

All times are in EDT time to prevent confusion due to time zone crossing. See the UAL906 flight status page for this flight to view local times or setup timezone preferences in your user account.

Time Position Orientation Groundspeed Altitude Reporting Facility
EDT Latitude Longitude Course Direction KTS MPH feet Rate Location/Type
07:07AM 50.2347 8.0974 308° West  Level FlightAware Approximate
07:08AM 50.3057 7.9388 308° West  Level FlightAware Approximate
07:09AM 50.3811 7.7842 305° West  Level FlightAware Approximate
07:10AM 50.4518 7.6240 305° West  Level FlightAware Approximate
07:11AM 50.5223 7.4633 305° West  Level FlightAware Approximate
07:12AM 50.5911 7.3006 303° West  Level FlightAware Approximate
07:13AM 50.6586 7.1363 303° West  Level FlightAware Approximate
07:14AM 50.7302 6.9761 306° West  Level FlightAware Approximate
07:15AM 50.8021 6.8160 305° West  Level FlightAware Approximate
07:16AM 50.8712 6.6526 304° West  Level FlightAware Approximate
07:17AM 50.9337 6.4827 309° West  Level FlightAware Approximate
07:18AM 51.0109 6.3282 309° West  Level FlightAware Approximate
07:19AM 51.0803 6.1645 304° West  Level FlightAware Approximate
07:20AM 51.1490 5.9997 304° West  Level FlightAware Approximate
07:21AM 51.2172 5.8341 303° West  Level FlightAware Approximate
07:22AM 51.2850 5.6679 303° West  Level FlightAware Approximate
07:23AM 51.3525 5.5011 303° West  Level FlightAware Approximate
07:24AM 51.4193 5.3333 302° West  Level FlightAware Approximate
07:25AM 51.4845 5.1637 303° West  Level FlightAware Approximate
07:26AM 51.5518 4.9960 303° West  Level FlightAware Approximate
07:27AM 51.6188 4.8277 303° West  Level FlightAware Approximate
07:28AM 51.6855 4.6589 303° West  Level FlightAware Approximate
07:29AM 51.7520 4.4896 302° West  Level FlightAware Approximate
07:30AM 51.8183 4.3198 302° West  Level FlightAware Approximate
07:30AM 51.8457 5.7371 302° West 1 1 34,000  Level FlightAware UK
07:31AM 51.9027 5.6612 321° Northwest 478 550 34,000  Level FlightAware UK
07:32AM 51.9648 5.5690 318° Northwest 476 548 34,000  Level FlightAware UK
07:32AM 52.0190 5.4892 318° Northwest 476 548 34,000 -120 Level FlightAware UK
07:33AM 52.0627 5.4214 316° Northwest 476 548 33,900 -120 Descending FlightAware UK
07:33AM 52.1173 5.3416 318° Northwest 476 548 33,900  Level FlightAware UK
07:34AM 52.1613 5.2734 316° Northwest 478 550 33,900  Level FlightAware UK
07:36AM 52.3263 5.0094 316° Northwest 478 550 33,900  Level FlightAware UK
07:36AM 52.3955 4.8960 315° West 478 550 33,900  Level FlightAware UK
07:37AM 52.4445 4.8090 313° West 480 552 33,900  Level FlightAware UK
07:38AM 52.5026 4.7307 321° Northwest 480 552 33,900  Level FlightAware UK
07:38AM 52.5481 4.6632 318° Northwest 480 552 33,900  Level FlightAware UK
07:40AM 52.6753 4.4732 318° Northwest 480 552 33,900  Level FlightAware UK
07:41AM 52.7915 4.2946 317° Northwest 478 550 34,000  Climbing FlightAware UK
07:44AM 53.1333 4.0888 340° North 476 548 34,000  Level FlightAware UK
07:45AM 53.3279 4.0085 346° North 474 545 34,000  Level FlightAware UK
07:46AM 53.4445 3.9602 346° North 474 545 34,000  Level FlightAware UK
07:47AM 53.6118 3.8866 345° North 476 548 34,000  Level FlightAware UK
07:48AM 53.7010 3.8429 344° North 472 543 34,000  Level FlightAware UK
07:49AM 53.7649 3.8125 344° North 474 545 34,000  Level FlightAware UK
07:49AM 53.8291 3.7823 345° North 476 548 34,000  Level FlightAware UK
07:50AM 53.8933 3.7521 345° North 474 545 34,000  Level FlightAware UK
07:50AM 53.9576 3.7217 344° North 476 548 34,000  Level FlightAware UK
07:51AM 54.0346 3.6852 344° North 474 545 34,000  Level FlightAware UK
07:51AM 54.1240 3.6423 344° North 476 548 34,000  Level FlightAware UK
07:52AM 54.1883 3.6114 344° North 478 550 34,000  Level FlightAware UK
07:52AM 54.2526 3.5804 344° North 476 548 34,000  Level FlightAware UK
07:53AM 54.3685 3.5245 344° North 478 550 34,000  Level FlightAware UK
07:54AM 54.4973 3.4618 344° North 480 552 34,000  Level FlightAware UK
07:55AM 54.6126 3.4050 344° North 480 552 34,000  Level FlightAware UK
07:57AM 54.8928 3.2661 344° North 476 548 34,000  Level FlightAware UK
07:58AM 54.9597 3.2017 331° Northwest 474 545 34,000  Level FlightAware UK
07:58AM 54.9835 3.1535 311° West 478 550 34,000  Level FlightAware UK
07:59AM 55.0162 3.0414 297° West 478 550 34,000  Level FlightAware UK
07:59AM 55.0240 3.2000 297° West 479 551 34,000  Level FlightAware
07:59AM 55.0690 3.1770 297° West 479 551 34,000  Level FlightAware
07:59AM 55.0412 2.9452 297° West 478 550 34,000  Level FlightAware UK
08:00AM 55.0713 2.8313 297° West 480 552 34,000  Level FlightAware UK
08:00AM 55.0968 2.7350 295° West 480 552 34,000  Level FlightAware UK
08:01AM 55.1225 2.6389 295° West 482 555 34,000  Level FlightAware UK
08:01AM 55.1490 2.5450 295° West 437 503 34,000 -120 Level FlightAware
08:02AM 55.1897 2.3895 295° West 482 555 33,900  Descending FlightAware UK
08:02AM 55.2020 2.3440 295° West 436 502 34,000 180 Climbing FlightAware
08:03AM 55.2153 2.2929 295° West 482 555 34,000  Level FlightAware UK
08:03AM 55.2360 2.2160 295° West 437 503 34,000  Level FlightAware
08:03AM 55.2409 2.1960 295° West 484 557 34,000  Level FlightAware UK
08:04AM 55.2660 2.1040 295° West 435 501 34,000  Level FlightAware
08:04AM 55.2990 1.9760 295° West 436 502 34,000  Level FlightAware
08:05AM 55.3363 1.8301 295° West 476 548 34,000  Level FlightAware UK
08:06AM 55.3713 1.6953 295° West 478 550 34,000  Level FlightAware UK
08:07AM 55.4110 1.5413 295° West 478 550 34,000  Level FlightAware UK
08:07AM 55.4408 1.4246 294° West 476 548 34,000 -120 Level FlightAware UK
08:08AM 55.4702 1.3075 294° West 474 545 33,900  Descending FlightAware UK
08:08AM 55.4996 1.1909 294° West 476 548 34,000 60 Climbing FlightAware UK
08:09AM 55.5130 1.1370 294° West 439 505 34,000  Level FlightAware
08:09AM 55.5470 1.0040 294° West 440 506 34,000  Level FlightAware
08:10AM 55.5733 0.8969 294° West 476 548 34,000  Level FlightAware UK
08:10AM 55.5830 0.8570 294° West 441 507 34,000  Level FlightAware
08:11AM 55.6319 0.6595 294° West 478 550 34,000  Level FlightAware UK
08:11AM 55.6370 0.6400 294° West 443 510 34,000  Level FlightAware
08:12AM 55.6806 0.4606 294° West 482 555 34,000  Level FlightAware UK
08:12AM 55.6810 0.4580 294° West 445 512 34,000  Level FlightAware
08:13AM 55.7020 0.3740 294° West 446 513 34,000 -120 Level FlightAware
08:14AM 55.7533 0.1594 294° West 478 550 33,900  Descending FlightAware UK
08:14AM 55.7660 0.1060 294° West 446 513 34,000 60 Climbing FlightAware
08:15AM 55.7990 -0.0300 293° West 446 513 34,000  Level FlightAware
08:15AM 55.8210 -0.1260 292° West 444 511 34,000  Level FlightAware
08:16AM 55.8490 -0.2440 293° West 444 511 34,000  Level FlightAware
08:16AM 55.8734 -0.3460 293° West 480 552 34,000  Level FlightAware UK
08:16AM 55.8850 -0.3970 293° West 445 512 34,000  Level FlightAware
08:17AM 55.9130 -0.5160 293° West 446 513 34,000  Level FlightAware
08:17AM 55.9397 -0.6316 293° West 482 555 34,000  Level FlightAware UK
08:18AM 55.9490 -0.6700 293° West 447 514 34,000 -240 Level FlightAware
08:18AM 55.9635 -0.7342 293° West 480 552 33,900  Descending FlightAware UK
08:18AM 55.9700 -0.7610 293° West 446 513 34,000 120 Climbing FlightAware
08:19AM 56.0010 -0.8988 293° West 480 552 34,000  Level FlightAware UK
08:19AM 56.0130 -0.9500 293° West 446 513 34,000  Level FlightAware
08:20AM 56.0430 -1.0840 292° West 446 513 34,000  Level FlightAware
08:20AM 56.0760 -1.2030 296° West 456 525 34,000  Level FlightAware
08:21AM 56.1320 -1.3400 306° West 453 521 34,000 -120 Level FlightAware
08:21AM 56.1580 -1.4045 306° West 482 555 33,900  Descending FlightAware UK
08:22AM 56.1740 -1.4480 306° West 451 519 34,000  Climbing FlightAware
08:22AM 56.1998 -1.5173 306° West 482 555 33,900  Descending FlightAware UK
08:22AM 56.2150 -1.5600 306° West 451 519 34,000 60 Climbing FlightAware
08:23AM 56.2681 -1.7067 306° West 480 552 34,000  Level FlightAware UK
08:23AM 56.2770 -1.7310 306° West 454 522 34,000  Level FlightAware
08:24AM 56.3091 -1.8206 306° West 478 550 34,000  Level FlightAware UK
08:24AM 56.3120 -1.8270 306° West 455 524 34,000  Level FlightAware
08:24AM 56.3529 -1.9310 306° West 480 552 34,000  Level FlightAware UK
08:24AM 56.3600 -1.9500 306° West 451 519 34,000  Level FlightAware
08:25AM 56.3910 -2.0300 306° West 458 527 34,000  Level FlightAware
08:25AM 56.4181 -2.0992 306° West 480 552 34,000  Level FlightAware UK
08:26AM 56.4543 -2.1933 306° West 480 552 34,000  Level FlightAware UK
08:26AM 56.4530 -2.1910 306° West 459 528 34,000  Level FlightAware
08:26AM 56.5040 -2.3240 305° West 460 529 34,000  Level FlightAware
08:27AM 56.5470 -2.4370 305° West 461 531 34,000  Level FlightAware
08:27AM 56.5870 -2.5430 304° West 461 531 34,000 -180 Level FlightAware
08:28AM 56.6123 -2.6113 304° West 482 555 33,900  Descending FlightAware UK
08:28AM 56.6350 -2.6710 304° West 462 532 34,000  Climbing FlightAware
08:29AM 56.6842 -2.8033 304° West 480 552 33,900  Descending FlightAware UK
08:29AM 56.6820 -2.7980 304° West 463 533 34,000 120 Climbing FlightAware
08:29AM 56.7310 -2.9290 304° West 463 533 34,000 -120 Level FlightAware
08:30AM 56.7630 -3.0155 304° West 484 557 33,900  Descending FlightAware UK
08:30AM 56.7988 -3.1128 304° West 484 557 34,000 60 Climbing FlightAware UK
08:31AM 56.8180 -3.1640 304° West 464 534 34,000 -180 Level FlightAware
08:31AM 56.8558 -3.2679 304° West 484 557 33,900  Descending FlightAware UK
08:31AM 56.8590 -3.2770 304° West 465 535 34,000  Climbing FlightAware
08:32AM 56.8916 -3.3656 304° West 484 557 33,900  Descending FlightAware UK
08:32AM 56.9130 -3.4250 304° West 464 534 34,000 60 Climbing FlightAware
08:33AM 56.9540 -3.5380 304° West 464 534 34,000  Level FlightAware
08:33AM 56.9765 -3.6005 304° West 484 557 34,000  Level FlightAware UK
08:33AM 57.0080 -3.6870 304° West 463 533 34,000  Level FlightAware
08:34AM 57.0550 -3.8200 304° West 458 527 34,000 -180 Level FlightAware
08:34AM 57.0612 -3.8360 304° West 478 550 33,900  Descending FlightAware UK
08:35AM 57.0963 -3.9342 304° West 480 552 34,000 120 Climbing FlightAware UK
08:35AM 57.1030 -3.9520 304° West 458 527 34,000  Level FlightAware
08:35AM 57.1311 -4.0330 304° West 476 548 34,000  Level FlightAware UK
08:35AM 57.1430 -4.0670 304° West 459 528 34,000  Level FlightAware
08:36AM 57.1940 -4.2108 304° West 482 555 34,000  Level FlightAware UK
08:36AM 57.1970 -4.2200 304° West 466 536 34,000  Level FlightAware
08:37AM 57.2390 -4.3380 303° West 467 537 34,000  Level FlightAware
08:37AM 57.2573 -4.3910 303° West 484 557 34,000 360 Level FlightAware UK
08:37AM 57.2890 -4.4820 303° West 462 532 34,300 660 Climbing FlightAware
08:37AM 57.2992 -4.5118 303° West 478 550 34,400 300 Climbing FlightAware UK
08:38AM 57.3342 -4.6126 303° West 482 555 34,500 300 Climbing FlightAware UK
08:38AM 57.3440 -4.6400 303° West 473 544 34,600 360 Climbing FlightAware
08:38AM 57.3698 -4.7154 303° West 482 555 34,700 420 Climbing FlightAware UK
08:39AM 57.3870 -4.7640 303° West 478 550 34,900 300 Climbing FlightAware
08:39AM 57.4406 -4.9223 303° West 486 559 35,000 120 Climbing FlightAware UK
08:40AM 57.4460 -4.9390 303° West 478 550 35,000  Level FlightAware
08:40AM 57.4829 -5.0460 303° West 484 557 35,000  Level FlightAware UK
08:40AM 57.4860 -5.0570 303° West 478 550 35,000 -240 Level FlightAware
08:41AM 57.5181 -5.1501 303° West 486 559 34,900  Descending FlightAware UK
08:41AM 57.5531 -5.2543 302° West 484 557 35,000 180 Climbing FlightAware UK
08:41AM 57.5530 -5.2550 302° West 477 549 35,000  Level FlightAware
08:42AM 57.5883 -5.3583 302° West 486 559 35,000  Level FlightAware UK
08:42AM 57.5630 -5.2840 302° West 473 544 35,000  Level FlightAware
08:42AM 57.6232 -5.4629 302° West 488 562 35,000  Level FlightAware UK
08:42AM 57.6460 -5.5320 302° West 473 544 35,000  Level FlightAware
08:43AM 57.6582 -5.5677 302° West 486 559 35,000  Level FlightAware UK
08:43AM 57.6930 -5.6728 302° West 486 559 35,000  Level FlightAware UK
08:43AM 57.6970 -5.6870 302° West 473 544 35,000  Level FlightAware
08:44AM 57.7277 -5.7778 302° West 484 557 35,000  Level FlightAware UK
08:44AM 57.7330 -5.7950 302° West 473 544 35,000  Level FlightAware
08:44AM 57.7623 -5.8829 302° West 482 555 35,000  Level FlightAware UK
08:44AM 57.7790 -5.9330 302° West 472 543 35,000  Level FlightAware
08:45AM 57.8240 -6.0750 302° West 475 547 35,000  Level FlightAware
08:45AM 57.8307 -6.0936 302° West 482 555 35,000  Level FlightAware UK
08:46AM 57.8650 -6.1990 302° West 482 555 35,000  Level FlightAware UK
08:46AM 57.8820 -6.2500 302° West 472 543 35,000  Level FlightAware
08:46AM 57.9220 -6.3760 301° West 476 548 35,000  Level FlightAware
08:47AM 57.9570 -6.4840 301° West 476 548 35,000  Level FlightAware
08:48AM 58.0030 -6.6280 301° West 476 548 35,000 -180 Level FlightAware
08:48AM 58.0078 -6.6436 301° West 480 552 34,900 -240 Descending FlightAware UK
08:48AM 58.0415 -6.7502 301° West 480 552 34,900 120 Level FlightAware UK
08:48AM 58.0530 -6.7870 301° West 476 548 35,000 180 Climbing FlightAware
08:49AM 58.0753 -6.8570 301° West 478 550 35,000  Level FlightAware UK
08:49AM 58.0970 -6.9270 301° West 477 549 35,000  Level FlightAware
08:50AM 58.1370 -7.0540 301° West 479 551 35,000 120 Level FlightAware
08:50AM 58.1424 -7.0719 301° West 482 555 35,100 540 Climbing FlightAware UK
08:50AM 58.1761 -7.1804 301° West 482 555 35,300 360 Climbing FlightAware UK
08:50AM 58.1930 -7.2350 301° West 484 557 35,400 480 Climbing FlightAware
08:51AM 58.2380 -7.3820 301° West 485 558 35,800 540 Climbing FlightAware
08:51AM 58.2441 -7.4002 301° West 486 559 35,800 300 Level FlightAware UK
08:52AM 58.2780 -7.5100 301° West 484 557 36,000 240 Climbing FlightAware UK
08:52AM 58.2900 -7.5500 301° West 485 558 36,000  Level FlightAware
08:52AM 58.3115 -7.6203 301° West 484 557 36,000  Level FlightAware UK
08:52AM 58.3300 -7.6820 301° West 486 559 36,000  Level FlightAware
08:53AM 58.3760 -7.8340 301° West 487 560 36,000  Level FlightAware
08:53AM 58.3849 -7.8637 301° West 488 562 36,000 -180 Level FlightAware UK
08:54AM 58.4185 -7.9750 301° West 486 559 35,900  Descending FlightAware UK
08:54AM 58.4260 -8.0000 301° West 486 559 36,000  Climbing FlightAware
08:54AM 58.4522 -8.0862 301° West 486 559 35,900  Descending FlightAware UK
08:55AM 58.4710 -8.1510 301° West 486 559 36,000 60 Climbing FlightAware
08:55AM 58.5185 -8.3099 301° West 486 559 36,000  Level FlightAware UK
08:55AM 58.5200 -8.3180 301° West 486 559 36,000 -240 Level FlightAware
08:56AM 58.5514 -8.4221 301° West 486 559 35,900  Descending FlightAware UK
08:56AM 58.5600 -8.4520 301° West 486 559 36,000 180 Climbing FlightAware
08:56AM 58.5843 -8.5344 301° West 486 559 36,000  Level FlightAware UK
08:57AM 58.6150 -8.6390 301° West 483 556 36,000 -120 Level FlightAware
08:57AM 58.6502 -8.7594 301° West 488 562 35,900  Descending FlightAware UK
08:57AM 58.6570 -8.7840 301° West 482 555 36,000  Climbing FlightAware
08:58AM 58.6828 -8.8724 301° West 488 562 35,900  Descending FlightAware UK
08:58AM 58.7080 -8.9610 301° West 483 556 36,000 60 Climbing FlightAware
08:59AM 58.7610 -9.1470 299° West 483 556 36,000  Level FlightAware
09:00AM 58.8050 -9.3020 299° West 484 557 36,000  Level FlightAware
09:00AM 58.8370 -9.4150 299° West 483 556 36,000  Level FlightAware
09:01AM 58.8870 -9.5920 299° West 484 557 36,000  Level FlightAware
09:02AM 58.9300 -9.7460 298° West 484 557 36,000  Level FlightAware
09:02AM 58.9710 -9.8950 298° West 488 562 36,000  Level FlightAware
09:03AM 59.0200 -10.0770 298° West 488 562 36,000  Level FlightAware
09:04AM 59.0600 -10.2380 296° West 493 567 36,000  Level FlightAware
09:04AM 59.1040 -10.4170 296° West 494 568 36,000  Level FlightAware
09:05AM 59.1410 -10.5680 296° West 494 568 36,000  Level FlightAware
09:06AM 59.1980 -10.7990 296° West 492 566 36,000  Level FlightAware
09:07AM 59.2450 -10.9530 301° West 497 572 36,000  Level FlightAware
09:07AM 59.2950 -11.1300 299° West 496 571 36,000  Level FlightAware
09:08AM 59.3340 -11.2880 296° West 497 572 36,000  Level FlightAware
09:09AM 59.3780 -11.4750 295° West 497 572 36,000  Level FlightAware
09:10AM 59.4090 -11.6060 295° West 496 571 36,000  Level FlightAware
09:10AM 59.4350 -11.7180 295° West 494 568 36,000  Level FlightAware
09:11AM 59.4740 -11.8850 295° West 495 570 36,000  Level FlightAware
09:12AM 59.5300 -12.1350 294° West 495 570 36,000  Level FlightAware
09:13AM 59.5760 -12.3510 293° West 495 570 36,000  Level FlightAware
09:14AM 59.6040 -12.4820 293° West 495 570 36,000  Level FlightAware
09:14AM 59.6410 -12.6520 293° West 495 570 36,000  Level FlightAware
09:15AM 59.6670 -12.7730 293° West 495 570 36,000  Level FlightAware
09:16AM 59.7040 -12.9470 293° West 495 570 36,000  Level FlightAware
09:16AM 59.7340 -13.0850 293° West 495 570 36,000  Level FlightAware
09:17AM 59.7620 -13.2170 293° West 495 570 36,000  Level FlightAware
09:18AM 59.7990 -13.3910 293° West 495 570 36,000  Level FlightAware
09:18AM 59.8270 -13.5230 293° West 495 570 36,000  Level FlightAware
09:19AM 59.8730 -13.7410 293° West 495 570 36,000  Level FlightAware
09:21AM 59.9280 -13.9980 293° West 495 570 36,000  Level FlightAware
09:21AM 59.9560 -14.1310 293° West 495 570 36,000  Level FlightAware
09:24AM 60.0149 -14.6836 282° West  Level Estimated
09:25AM 60.0401 -14.9280 282° West  Level Estimated
09:26AM 60.0649 -15.1727 282° West  Level Estimated
09:27AM 60.0892 -15.4179 281° West  Level Estimated
09:28AM 60.1131 -15.6634 281° West  Level Estimated
09:29AM 60.1365 -15.9092 281° West  Level Estimated
09:30AM 60.1595 -16.1554 281° West  Level Estimated
09:31AM 60.1819 -16.4019 281° West  Level Estimated
09:32AM 60.2040 -16.6488 280° West  Level Estimated
09:33AM 60.2256 -16.8960 280° West  Level Estimated
09:34AM 60.2467 -17.1435 280° West  Level Estimated
09:35AM 60.2674 -17.3913 280° West  Level Estimated
09:36AM 60.2876 -17.6395 279° West  Level Estimated
09:37AM 60.3073 -17.8879 279° West  Level Estimated
09:38AM 60.3266 -18.1366 279° West  Level Estimated
09:38AM 60.8640 -19.0190 279° West 508 585 36,000  Level FlightAware
09:38AM 60.8920 -19.1940 288° West 508 585 36,000  Level FlightAware
09:39AM 60.9300 -19.4360 288° West 507 583 36,000  Level FlightAware
09:40AM 60.9520 -19.5850 287° West 507 583 36,000  Level FlightAware
09:41AM 60.9920 -19.8310 289° West 506 582 36,000  Level FlightAware
09:41AM 61.0140 -19.9800 287° West 507 583 36,000  Level FlightAware
09:42AM 61.0470 -20.2130 286° West 506 582 36,000  Level FlightAware
09:43AM 61.0760 -20.4240 286° West 506 582 36,000  Level FlightAware
09:44AM 61.1040 -20.6310 286° West 506 582 36,000  Level FlightAware
09:44AM 61.1260 -20.7930 286° West 507 583 36,000  Level FlightAware
09:45AM 61.1490 -20.9680 285° West 507 583 36,000  Level FlightAware
09:46AM 61.1670 -21.1120 285° West 507 583 36,000  Level FlightAware
09:47AM 61.2060 -21.4120 285° West 507 583 36,000  Level FlightAware
09:48AM 61.2480 -21.7300 285° West 510 587 36,000  Level FlightAware
09:48AM 61.2710 -21.9150 285° West 511 588 36,000  Level FlightAware
09:49AM 61.2950 -22.1090 285° West 511 588 36,000  Level FlightAware
09:50AM 61.3240 -22.3440 285° West 512 589 36,000  Level FlightAware
09:51AM 61.3550 -22.6010 284° West 511 588 36,000  Level FlightAware
09:51AM 61.3790 -22.8010 284° West 511 588 36,000  Level FlightAware
09:52AM 61.4020 -23.0010 284° West 510 587 36,000  Level FlightAware
09:53AM 61.4260 -23.2110 284° West 509 586 36,000  Level FlightAware
09:53AM 61.4450 -23.3830 283° West 509 586 36,000  Level FlightAware
09:54AM 61.4690 -23.5910 284° West 509 586 36,000  Level FlightAware
09:55AM 61.4880 -23.7660 283° West 508 585 36,000  Level FlightAware
09:55AM 61.5040 -23.9110 283° West 508 585 36,000  Level FlightAware
09:56AM 61.5240 -24.1040 282° West 509 586 36,000  Level FlightAware
09:57AM 61.5460 -24.3050 283° West 509 586 36,000  Level FlightAware
09:57AM 61.5670 -24.5090 282° West 508 585 36,000  Level FlightAware
09:58AM 61.5860 -24.6930 282° West 509 586 36,000  Level FlightAware
09:59AM 61.6080 -24.9140 282° West 508 585 36,000  Level FlightAware
09:59AM 61.6270 -25.1040 282° West 508 585 36,000  Level FlightAware
10:00AM 61.6450 -25.2920 281° West 508 585 36,000  Level FlightAware
10:01AM 61.6740 -25.5860 282° West 508 585 36,000  Level FlightAware
10:02AM 61.6910 -25.7710 281° West 508 585 36,000  Level FlightAware
10:03AM 61.7220 -26.1130 281° West 508 585 36,000  Level FlightAware
10:03AM 61.7330 -26.2540 279° West 508 585 36,000  Level FlightAware
10:04AM 61.7500 -26.4540 280° West 508 585 36,000  Level FlightAware
10:05AM 61.7660 -26.6450 280° West 508 585 36,000  Level FlightAware
10:06AM 61.7950 -26.9400 282° West 505 581 36,000  Level FlightAware
10:06AM 61.8090 -27.1100 280° West 505 581 36,000  Level FlightAware
10:07AM 61.8300 -27.3620 280° West 505 581 36,000  Level FlightAware
10:08AM 61.8440 -27.5350 280° West 505 581 36,000  Level FlightAware
10:08AM 61.8610 -27.7620 279° West 504 580 36,000  Level FlightAware
10:09AM 61.8800 -28.0090 279° West 505 581 36,000  Level FlightAware
10:10AM 61.8930 -28.1780 279° West 506 582 36,000  Level FlightAware
10:11AM 61.9110 -28.4220 279° West 505 581 36,000  Level FlightAware
10:12AM 61.9370 -28.7840 279° West 505 581 36,000  Level FlightAware
10:13AM 61.9460 -28.9180 278° West 506 582 36,000  Level FlightAware
10:13AM 61.9610 -29.1330 279° West 507 583 36,000  Level FlightAware
10:14AM 61.9700 -29.2730 278° West 507 583 36,000  Level FlightAware
10:15AM 61.9890 -29.5520 278° West 506 582 36,000  Level FlightAware
10:15AM 61.9950 -29.6580 277° West 506 582 36,000  Level FlightAware
10:16AM 62.0090 -29.8940 277° West 506 582 36,000  Level FlightAware
10:17AM 62.0210 -30.1040 277° West 506 582 36,000  Level FlightAware
10:18AM 62.0310 -30.2730 277° West 506 582 36,000  Level FlightAware
10:18AM 62.0390 -30.4240 277° West 506 582 36,000  Level FlightAware
10:19AM 62.0480 -30.5800 277° West 506 582 36,000  Level FlightAware
10:20AM 62.0600 -30.7780 277° West 506 582 36,000  Level FlightAware
10:20AM 62.0720 -30.9970 277° West 506 582 36,000  Level FlightAware
10:21AM 62.0800 -31.1410 277° West 506 582 36,000  Level FlightAware
10:22AM 62.1000 -31.4740 277° West 506 582 36,000  Level FlightAware
10:23AM 62.1090 -31.6300 277° West 506 582 36,000  Level FlightAware
10:24AM 62.1200 -31.8290 277° West 506 582 36,000  Level FlightAware
10:24AM 62.1300 -32.0020 277° West 506 582 36,000  Level FlightAware
10:25AM 62.1390 -32.1670 277° West 506 582 36,000  Level FlightAware
10:28AM 62.1445 -32.8500 271° West  Level FlightAware Approximate
10:29AM 62.1458 -33.1289 271° West  Level FlightAware Approximate
10:30AM 62.1465 -33.4077 270° West  Level FlightAware Approximate
10:31AM 62.1467 -33.6866 270° West  Level FlightAware Approximate
10:32AM 62.1463 -33.9655 270° West  Level FlightAware Approximate
10:33AM 62.1454 -34.2443 270° West  Level FlightAware Approximate
10:34AM 62.1439 -34.5232 269° West  Level FlightAware Approximate
10:35AM 62.1418 -34.8020 269° West  Level FlightAware Approximate
10:36AM 62.1392 -35.0807 269° West  Level FlightAware Approximate
10:37AM 62.1360 -35.3595 269° West  Level FlightAware Approximate
10:38AM 62.1322 -35.6381 268° West  Level FlightAware Approximate
10:39AM 62.1279 -35.9167 268° West  Level FlightAware Approximate
10:39AM 62.0833 -36.4833 267° West 500 575 36,000  Level Gander Center
10:40AM 62.1231 -36.1951 268° West  Level FlightAware Approximate
10:40AM 62.0833 -36.7667 270° West 500 575 36,000  Level Gander Center
10:41AM 62.1176 -36.4735 268° West  Level FlightAware Approximate
10:41AM 62.1000 -37.1000 276° West 500 575 36,000  Level Gander Center
10:42AM 62.1116 -36.7518 267° West  Level FlightAware Approximate
10:42AM 62.0833 -37.3833 263° West 500 575 36,000  Level Gander Center
10:43AM 62.1051 -37.0300 267° West  Level FlightAware Approximate
10:43AM 62.0667 -37.6833 263° West 500 575 36,000  Level Gander Center
10:44AM 62.0980 -37.3080 267° West  Level FlightAware Approximate
10:44AM 62.0667 -37.9500 270° West 500 575 36,000  Level Gander Center
10:45AM 62.0667 -38.2500 270° West 500 575 36,000  Level Gander Center
10:46AM 62.0667 -38.5500 270° West 500 575 36,000  Level Gander Center
10:47AM 62.0500 -38.8500 263° West 500 575 36,000  Level Gander Center
10:48AM 62.0333 -39.1500 263° West 500 575 36,000  Level Gander Center
10:49AM 62.0333 -39.4167 270° West 500 575 36,000  Level Gander Center
10:50AM 62.0167 -39.7167 263° West 500 575 36,000  Level Gander Center
10:51AM 62.0333 -40.0000 277° West 500 575 36,000  Level Gander Center
10:52AM 62.0333 -40.3000 270° West 500 575 36,000  Level Gander Center
10:53AM 62.0500 -40.5833 277° West 500 575 36,000  Level Gander Center
10:54AM 62.0500 -40.8667 270° West 500 575 36,000  Level Gander Center
10:55AM 62.0667 -41.1667 277° West 500 575 36,000  Level Gander Center
10:56AM 62.0667 -41.4500 270° West 500 575 36,000  Level Gander Center
10:57AM 62.0833 -41.7333 277° West 500 575 36,000  Level Gander Center
10:58AM 62.0833 -42.0333 270° West 500 575 36,000  Level Gander Center
10:59AM 62.0833 -42.3167 270° West 490 564 36,000  Level Gander Center
11:00AM 62.0833 -42.6000 270° West 490 564 36,000  Level Gander Center
11:01AM 62.1000 -42.9000 277° West 490 564 36,000  Level Gander Center
11:02AM 62.1000 -43.1833 270° West 490 564 36,000  Level Gander Center
11:03AM 62.1000 -43.5167 270° West 490 564 36,000  Level Gander Center
11:04AM 62.1000 -43.8000 270° West 490 564 36,000  Level Gander Center
11:05AM 62.1167 -44.0833 277° West 490 564 36,000  Level Gander Center
11:06AM 62.1167 -44.3667 270° West 500 575 36,000  Level Gander Center
11:07AM 62.1167 -44.6667 270° West 500 575 36,000  Level Gander Center
11:08AM 62.1167 -44.9500 270° West 490 564 36,000  Level Gander Center
11:09AM 62.1167 -45.2500 270° West 490 564 36,000  Level Gander Center
11:10AM 62.1167 -45.5000 270° West 490 564 36,000  Level Gander Center
11:11AM 62.1167 -45.8000 270° West 490 564 36,000  Level Gander Center
11:12AM 62.1167 -46.0833 270° West 490 564 36,000  Level Gander Center
11:13AM 62.1167 -46.3667 270° West 490 564 36,000  Level Gander Center
11:14AM 62.1000 -46.6667 263° West 490 564 36,000  Level Gander Center
11:15AM 62.1000 -46.9167 270° West 490 564 36,000  Level Gander Center
11:16AM 62.1000 -47.2167 270° West 490 564 36,000  Level Gander Center
11:17AM 62.0833 -47.5000 263° West 490 564 36,000  Level Gander Center
11:18AM 62.0833 -47.8000 270° West 490 564 36,000  Level Gander Center
11:19AM 62.0833 -48.0833 270° West 490 564 36,000  Level Gander Center
11:20AM 62.0833 -48.3667 270° West 490 564 36,000 240 Level Gander Center
11:26AM 61.9990 -50.1210 270° West 482 555 38,000 300 Climbing FlightAware
11:26AM 61.9780 -50.2660 253° West 482 555 38,000  Level FlightAware
11:27AM 61.9510 -50.4550 253° West 482 555 38,000  Level FlightAware
11:28AM 61.9310 -50.5940 253° West 482 555 38,000  Level FlightAware
11:28AM 61.9050 -50.7750 253° West 482 555 38,000  Level FlightAware
11:29AM 61.8840 -50.9170 253° West 482 555 38,000  Level FlightAware
11:30AM 61.8630 -51.0630 253° West 482 555 38,000  Level FlightAware
11:31AM 61.8350 -51.2630 254° West 482 555 38,000  Level FlightAware
11:31AM 61.8140 -51.4050 253° West 482 555 38,000  Level FlightAware
11:32AM 61.7950 -51.5350 253° West 482 555 38,000  Level FlightAware
11:32AM 61.7730 -51.6890 253° West 482 555 38,000  Level FlightAware
11:33AM 61.7530 -51.8270 253° West 482 555 38,000  Level FlightAware
11:34AM 61.7310 -51.9800 253° West 482 555 38,000  Level FlightAware
11:35AM 61.7040 -52.1670 253° West 482 555 38,000  Level FlightAware
11:35AM 61.6820 -52.3120 252° West 482 555 38,000  Level FlightAware
11:36AM 61.5667 -52.7167 252° West 480 552 38,000  Level Gander Center
11:37AM 61.5167 -53.0500 253° West 480 552 38,000  Level Gander Center
11:38AM 61.4833 -53.2333 249° West 480 552 38,000  Level Gander Center
11:39AM 61.4333 -53.5000 249° West 470 541 38,000  Level Gander Center
11:40AM 61.3833 -53.7500 247° West 470 541 38,000  Level Gander Center
11:40AM 61.3667 -53.8167 242° Southwest 470 541 38,000  Level Gander Center
11:41AM 61.3500 -54.0000 259° West 470 541 38,000  Level Gander Center
11:42AM 61.2833 -54.3333 248° West 470 541 38,000  Level Gander Center
11:43AM 61.2333 -54.5167 241° Southwest 470 541 38,000  Level Gander Center
11:44AM 61.2000 -54.7667 255° West 470 541 38,000  Level Gander Center
11:44AM 61.1833 -54.8333 243° Southwest 470 541 38,000  Level Gander Center
11:45AM 61.1333 -54.9833 235° Southwest 470 541 38,000  Level Gander Center
11:46AM 61.1000 -55.2333 255° West 470 541 38,000  Level Gander Center
11:47AM 61.0500 -55.4833 248° West 470 541 38,000  Level Gander Center
11:48AM 60.9833 -55.7667 244° Southwest 480 552 38,000  Level Gander Center
11:48AM 60.9833 -55.8333 270° West 480 552 38,000  Level Gander Center
11:50AM 60.8833 -56.2333 243° Southwest 480 552 38,000  Level Gander Center
11:51AM 60.8333 -56.5000 249° West 480 552 38,000  Level Gander Center
11:52AM 60.7833 -56.8167 252° West 470 541 38,000  Level Gander Center
11:53AM 60.7167 -57.1000 244° Southwest 480 552 38,000  Level Gander Center
11:54AM 60.6833 -57.2333 243° Southwest 470 541 38,000  Level Gander Center
11:55AM 60.6333 -57.4833 248° West 470 541 38,000  Level Gander Center
11:56AM 60.5833 -57.7333 248° West 470 541 38,000  Level Gander Center
11:56AM 60.5500 -57.8333 236° Southwest 470 541 38,000  Level Gander Center
11:57AM 60.5167 -58.0667 254° West 470 541 38,000  Level Gander Center
11:58AM 60.4500 -58.3167 242° Southwest 470 541 38,000  Level Gander Center
11:59AM 60.4167 -58.4833 248° West 470 541 38,000  Level Gander Center
11:59AM 60.4000 -58.5500 243° Southwest 470 541 38,000  Level Gander Center
12:00PM 60.3667 -58.7333 250° West 470 541 38,000  Level Gander Center
12:01PM 60.3167 -58.9667 247° West 470 541 38,000  Level Gander Center
12:01PM 60.3000 -59.0333 243° Southwest 470 541 38,000  Level Gander Center
12:02PM 60.2333 -59.2667 240° Southwest 470 541 38,000  Level Gander Center
12:03PM 60.1833 -59.5167 248° West 470 541 38,000  Level Gander Center
12:04PM 60.1333 -59.6833 239° Southwest 470 541 38,000  Level Gander Center
12:05PM 60.1000 -59.9167 254° West 470 541 38,000  Level Gander Center
12:05PM 60.0833 -59.9833 243° Southwest 470 541 38,000  Level Gander Center
12:06PM 60.0333 -60.1500 239° Southwest 470 541 38,000  Level Gander Center
12:07PM 59.9833 -60.3833 247° West 470 541 38,000  Level Gander Center
12:08PM 59.9000 -60.6833 241° Southwest 460 529 38,000  Level Gander Center
12:09PM 59.8667 -60.7167 207° Southwest 460 529 38,000  Level Montreal Center
12:10PM 59.8167 -60.9333 245° Southwest 460 529 38,000  Level Montreal Center
12:10PM 59.7833 -61.1167 250° West 460 529 38,000  Level Gander Center
12:11PM 59.7500 -61.2833 248° West 450 518 38,000  Level Gander Center
12:12PM 59.6667 -61.6167 244° Southwest 470 541 38,000  Level Gander Center
12:13PM 59.6167 -61.8167 244° Southwest 460 529 38,000  Level Gander Center
12:14PM 59.5833 -61.8500 207° Southwest 460 529 38,000  Level Montreal Center
12:14PM 59.5500 -62.0333 250° West 460 529 38,000  Level Gander Center
12:15PM 59.5000 -62.2667 247° West 460 529 38,000  Level Gander Center
12:16PM 59.4667 -62.3000 207° Southwest 460 529 38,000  Level Montreal Center
12:16PM 59.4333 -62.5000 252° West 470 541 38,000  Level Gander Center
12:17PM 59.3833 -62.7167 246° West 470 541 38,000  Level Gander Center
12:18PM 59.3500 -62.7500 207° Southwest 460 529 38,000  Level Montreal Center
12:19PM 59.2833 -62.9833 241° Southwest 470 541 38,000  Level Montreal Center
12:20PM 59.2167 -63.2000 239° Southwest 470 541 38,000  Level Montreal Center
12:20PM 59.1833 -63.4000 252° West 470 541 38,000  Level Gander Center
12:21PM 59.1167 -63.6167 239° Southwest 470 541 38,000  Level Gander Center
12:22PM 59.0833 -63.7500 244° Southwest 470 541 38,000  Level Gander Center
12:23PM 59.0333 -63.9667 246° West 470 541 38,000  Level Gander Center
12:24PM 58.9667 -64.0833 222° Southwest 470 541 38,000  Level Montreal Center
12:25PM 58.9167 -64.3000 246° West 470 541 38,000  Level Montreal Center
12:26PM 58.8500 -64.5167 239° Southwest 470 541 38,000  Level Montreal Center
12:26PM 58.8167 -64.7167 252° West 470 541 38,000  Level Gander Center
12:28PM 58.7167 -64.9500 231° Southwest 470 541 38,000  Level Montreal Center
12:29PM 58.6500 -65.1667 239° Southwest 460 529 38,000  Level Montreal Center
12:30PM 58.5833 -65.3833 240° Southwest 470 541 38,000  Level Montreal Center
12:31PM 58.5167 -65.6000 240° Southwest 470 541 38,000  Level Montreal Center
12:32PM 58.4500 -65.8500 243° Southwest 470 541 38,000  Level Montreal Center
12:33PM 58.3833 -66.0667 240° Southwest 470 541 38,000  Level Montreal Center
12:34PM 58.3167 -66.2667 238° Southwest 470 541 38,000  Level Montreal Center
12:34PM 58.2667 -66.4500 243° Southwest 470 541 38,000  Level Gander Center
12:35PM 58.2500 -66.4833 226° Southwest 470 541 38,000  Level Montreal Center
12:36PM 58.1833 -66.7000 240° Southwest 470 541 38,000  Level Montreal Center
12:37PM 58.1000 -66.9000 232° Southwest 470 541 38,000  Level Montreal Center
12:38PM 58.0333 -67.0833 236° Southwest 470 541 38,000  Level Montreal Center
12:39PM 57.9667 -67.2833 238° Southwest 460 529 38,000  Level Montreal Center
12:40PM 57.9000 -67.5000 240° Southwest 470 541 38,000  Level Montreal Center
12:41PM 57.8167 -67.7000 232° Southwest 470 541 38,000  Level Montreal Center
12:42PM 57.7500 -67.8833 236° Southwest 470 541 38,000  Level Montreal Center
12:43PM 57.6667 -68.0833 232° Southwest 470 541 38,000  Level Montreal Center
12:44PM 57.5833 -68.3000 234° Southwest 470 541 38,000  Level Montreal Center
12:45PM 57.5167 -68.5000 238° Southwest 470 541 38,000  Level Montreal Center
12:46PM 57.4500 -68.7000 238° Southwest 470 541 38,000  Level Montreal Center
12:47PM 57.3667 -68.8667 227° Southwest 470 541 38,000  Level Montreal Center
12:48PM 57.2833 -69.0833 235° Southwest 470 541 38,000  Level Montreal Center
12:49PM 57.2000 -69.3000 235° Southwest 470 541 38,000  Level Montreal Center
12:50PM 57.1333 -69.4833 236° Southwest 470 541 38,000  Level Montreal Center
12:51PM 57.0333 -69.6833 227° Southwest 470 541 38,000  Level Montreal Center
12:52PM 56.9667 -69.8833 239° Southwest 470 541 38,000  Level Montreal Center
12:53PM 56.8833 -70.0667 230° Southwest 470 541 38,000  Level Montreal Center
12:54PM 56.8167 -70.2667 239° Southwest 470 541 38,000  Level Montreal Center
12:55PM 56.7333 -70.4667 233° Southwest 470 541 38,000  Level Montreal Center
12:56PM 56.6500 -70.6333 228° Southwest 470 541 38,000  Level Montreal Center
12:57PM 56.5667 -70.8333 233° Southwest 460 529 38,000  Level Montreal Center
12:58PM 56.4667 -71.0167 225° Southwest 470 541 38,000  Level Montreal Center
12:59PM 56.4000 -71.2167 239° Southwest 470 541 38,000  Level Montreal Center
01:00PM 56.3167 -71.4000 231° Southwest 470 541 38,000  Level Montreal Center
01:00PM 56.2500 -71.5500 231° Southwest 480 552 38,000  Level Gander Center
01:01PM 56.1833 -71.7167 234° Southwest 480 552 38,000  Level Gander Center
01:02PM 56.1333 -71.7667 209° Southwest 480 552 38,000  Level Montreal Center
01:03PM 56.0333 -71.9167 220° Southwest 480 552 38,000  Level Montreal Center
01:04PM 55.9333 -72.0833 223° Southwest 480 552 38,000  Level Montreal Center
01:05PM 55.8500 -72.2500 228° Southwest 480 552 38,000  Level Montreal Center
01:06PM 55.7500 -72.4000 220° Southwest 480 552 38,000  Level Montreal Center
01:07PM 55.6500 -72.5667 223° Southwest 480 552 38,000  Level Montreal Center
01:08PM 55.5500 -72.7167 220° Southwest 480 552 38,000  Level Montreal Center
01:09PM 55.4500 -72.9000 226° Southwest 480 552 38,000  Level Montreal Center
01:10PM 55.3000 -73.1833 227° Southwest 480 552 38,000  Level Gander Center
01:11PM 55.2667 -73.2167 210° Southwest 480 552 38,000  Level Montreal Center
01:12PM 55.1667 -73.4000 226° Southwest 480 552 38,000  Level Montreal Center
01:13PM 55.0667 -73.5500 221° Southwest 470 541 38,000  Level Montreal Center
01:14PM 54.9667 -73.7000 221° Southwest 470 541 38,000  Level Montreal Center
01:15PM 54.8667 -73.8500 221° Southwest 480 552 38,000  Level Montreal Center
01:16PM 54.7667 -74.0000 221° Southwest 480 552 38,000  Level Montreal Center
01:17PM 54.6667 -74.1500 221° Southwest 470 541 38,000  Level Montreal Center
01:18PM 54.5667 -74.3000 221° Southwest 480 552 38,000  Level Montreal Center
01:19PM 54.4833 -74.4500 226° Southwest 470 541 38,000  Level Montreal Center
01:20PM 54.3833 -74.6000 221° Southwest 480 552 38,000  Level Montreal Center
01:21PM 54.2667 -74.7833 223° Southwest 480 552 38,000  Level Montreal Center
01:22PM 54.1667 -74.9333 221° Southwest 480 552 38,000  Level Montreal Center
01:23PM 54.0667 -75.0667 218° Southwest 480 552 38,000  Level Montreal Center
01:24PM 53.9667 -75.2167 221° Southwest 480 552 38,000  Level Montreal Center
01:25PM 53.8667 -75.4000 227° Southwest 480 552 38,000  Level Montreal Center
01:26PM 53.7667 -75.5333 218° Southwest 480 552 38,000  Level Montreal Center
01:27PM 53.6667 -75.6833 222° Southwest 480 552 38,000  Level Montreal Center
01:28PM 53.5667 -75.8167 218° Southwest 480 552 38,000  Level Montreal Center
01:29PM 53.4500 -75.9667 217° Southwest 480 552 38,000  Level Montreal Center
01:30PM 53.3500 -76.1000 219° Southwest 480 552 38,000  Level Montreal Center
01:31PM 53.2500 -76.2667 225° Southwest 480 552 38,000  Level Montreal Center
01:32PM 53.1500 -76.4167 222° Southwest 480 552 38,000  Level Montreal Center
01:33PM 53.0500 -76.5500 219° Southwest 480 552 38,000  Level Montreal Center
01:34PM 52.9500 -76.6833 219° Southwest 480 552 38,000  Level Montreal Center
01:35PM 52.8500 -76.8333 222° Southwest 480 552 38,000  Level Montreal Center
01:36PM 52.7333 -77.0000 221° Southwest 480 552 38,000  Level Montreal Center
01:37PM 52.6333 -77.1333 219° Southwest 480 552 38,000  Level Montreal Center
01:38PM 52.5333 -77.2667 219° Southwest 480 552 38,000  Level Montreal Center
01:39PM 52.4167 -77.4000 215° Southwest 480 552 38,000  Level Montreal Center
01:40PM 52.3167 -77.5667 226° Southwest 480 552 38,000  Level Montreal Center
01:41PM 52.2167 -77.7000 219° Southwest 480 552 38,000  Level Montreal Center
01:42PM 52.1167 -77.8333 219° Southwest 480 552 38,000  Level Montreal Center
01:43PM 52.0167 -77.9667 219° Southwest 490 564 38,000  Level Montreal Center
01:44PM 51.9000 -78.1167 218° Southwest 490 564 38,000  Level Montreal Center
01:45PM 51.8000 -78.2500 220° Southwest 480 552 38,000  Level Montreal Center
01:46PM 51.7000 -78.3833 220° Southwest 490 564 38,000  Level Montreal Center
01:47PM 51.6000 -78.5167 220° Southwest 490 564 38,000  Level Montreal Center
01:48PM 51.5000 -78.6667 223° Southwest 480 552 38,000  Level Montreal Center
01:49PM 51.3667 -78.8000 212° Southwest 480 552 38,000  Level Montreal Center
01:50PM 51.2667 -78.9167 216° Southwest 480 552 38,000  Level Montreal Center
01:51PM 51.1667 -79.0500 220° Southwest 480 552 38,000  Level Montreal Center
01:52PM 51.0500 -79.2000 219° Southwest 480 552 38,000  Level Montreal Center
01:53PM 50.9500 -79.3333 220° Southwest 490 564 38,000  Level Montreal Center
01:54PM 50.8500 -79.4500 216° Southwest 480 552 38,000  Level Montreal Center
01:55PM 50.7500 -79.5833 220° Southwest 480 552 38,000  Level Montreal Center
01:56PM 50.6167 -79.7000 209° Southwest 490 564 38,000  Level Montreal Center
01:57PM 50.5333 -79.8500 229° Southwest 490 564 38,000  Level Montreal Center
01:58PM 50.4167 -79.9833 216° Southwest 490 564 38,000  Level Montreal Center
01:59PM 50.3000 -80.1000 213° Southwest 480 552 38,000  Level Montreal Center
02:00PM 50.2000 -80.2500 224° Southwest 490 564 38,000  Level Montreal Center
02:01PM 50.1000 -80.3667 217° Southwest 490 564 38,000  Level Montreal Center
02:02PM 49.9667 -80.4833 209° Southwest 490 564 38,000  Level Montreal Center
02:03PM 49.8667 -80.6167 221° Southwest 490 564 38,000  Level Montreal Center
02:04PM 49.7667 -80.7333 217° Southwest 490 564 38,000  Level Montreal Center
02:05PM 49.6500 -80.8833 220° Southwest 480 552 38,000  Level Montreal Center
02:06PM 49.5500 -81.0000 217° Southwest 480 552 38,000  Level Montreal Center
02:07PM 49.4333 -81.1167 213° Southwest 480 552 38,000  Level Montreal Center
02:08PM 49.3333 -81.2333 217° Southwest 480 552 38,000  Level Montreal Center
02:09PM 49.2167 -81.3833 220° Southwest 480 552 38,000  Level Montreal Center
02:10PM 49.1167 -81.5000 217° Southwest 480 552 38,000  Level Montreal Center
02:11PM 49.0000 -81.6333 217° Southwest 490 564 38,000  Level Montreal Center
02:12PM 48.8833 -81.7500 213° Southwest 490 564 38,000  Level Montreal Center
02:13PM 48.7833 -81.8667 218° Southwest 490 564 38,000  Level Montreal Center
02:14PM 48.6667 -81.9833 213° Southwest 490 564 38,000  Level Montreal Center
02:15PM 48.5667 -82.0833 214° Southwest 490 564 38,000  Level Montreal Center
02:16PM 48.4333 -82.2333 217° Southwest 490 564 38,000  Level Montreal Center
02:17PM 48.3500 -82.3500 223° Southwest 470 541 38,000  Level Montreal Center
02:18PM 48.2167 -82.4500 207° Southwest 470 541 38,000  Level Montreal Center
02:18PM 48.1500 -82.5333 220° Southwest 470 541 38,000  Level Toronto Center
02:24PM 47.5340 -83.1820 220° Southwest 461 531 38,000  Level FlightAware
02:25PM 47.4320 -83.2880 215° Southwest 458 527 38,000  Level FlightAware
02:26PM 47.3380 -83.3850 215° Southwest 456 525 38,000  Level FlightAware
02:27PM 47.2490 -83.4750 214° Southwest 454 522 38,000  Level FlightAware
02:28PM 47.1960 -83.5280 214° Southwest 454 522 38,000  Level FlightAware
02:28PM 47.0960 -83.6310 215° Southwest 451 519 38,000  Level FlightAware
02:29PM 47.0530 -83.6760 215° Southwest 450 518 38,000  Level FlightAware
02:30PM 46.9530 -83.7760 214° Southwest 450 518 38,000  Level FlightAware
02:30PM 46.8910 -83.8390 215° Southwest 450 518 38,000  Level FlightAware
02:31PM 46.8110 -83.9190 214° Southwest 451 519 38,000  Level FlightAware
02:32PM 46.7370 -83.9930 214° Southwest 452 520 38,000  Level FlightAware
02:33PM 46.6630 -84.0660 214° Southwest 451 519 38,000  Level FlightAware
02:33PM 46.5880 -84.1410 215° Southwest 452 520 38,000  Level FlightAware
02:34PM 46.5260 -84.2020 214° Southwest 453 521 38,000  Level FlightAware
02:35PM 46.4440 -84.2830 214° Southwest 456 525 38,000  Level FlightAware
02:35PM 46.3620 -84.3300 202° Southwest 477 549 38,000  Level FlightAware
02:36PM 46.2660 -84.3660 195° South 479 551 38,000  Level FlightAware
02:37PM 46.1770 -84.3970 194° South 481 554 38,000  Level FlightAware
02:38PM 46.0900 -84.4270 193° South 483 556 38,000  Level FlightAware
02:38PM 45.9970 -84.4580 193° South 485 558 38,000  Level FlightAware
02:39PM 45.9060 -84.4890 193° South 486 559 38,000  Level FlightAware
02:40PM 45.8270 -84.5160 193° South 486 559 38,000  Level FlightAware
02:40PM 45.7220 -84.5520 193° South 487 560 38,000  Level FlightAware
02:41PM 45.6330 -84.5820 193° South 487 560 38,000  Level FlightAware
02:42PM 45.5530 -84.6090 193° South 488 562 38,000  Level FlightAware
02:42PM 45.4460 -84.6450 193° South 489 563 38,000  Level FlightAware
02:43PM 45.3590 -84.6740 193° South 496 571 38,000  Level FlightAware
02:44PM 45.2240 -84.7190 193° South 499 574 38,000  Level FlightAware
02:45PM 45.1350 -84.7490 193° South 500 575 38,000 -240 Level FlightAware
02:46PM 45.0390 -84.7810 193° South 494 568 37,700 -660 Descending FlightAware
02:46PM 44.9520 -84.8090 193° South 487 560 37,100 -1,020 Descending FlightAware
02:47PM 44.8520 -84.8420 193° South 479 551 36,300 -1,680 Descending FlightAware
02:48PM 44.7600 -84.8730 193° South 496 571 34,700 -1,980 Descending FlightAware
02:48PM 44.6720 -84.9020 193° South 504 580 33,600 -1,560 Descending FlightAware
02:49PM 44.5740 -84.9330 193° South 502 578 32,600 -1,020 Descending FlightAware
02:50PM 44.4470 -84.9740 193° South 506 582 32,000 -420 Descending FlightAware
02:51PM 44.3620 -85.0020 193° South 508 585 32,000  Level FlightAware
02:51PM 44.2560 -85.0360 193° South 511 588 32,000  Level FlightAware
02:52PM 44.1630 -85.0660 193° South 511 588 32,000  Level FlightAware
02:53PM 44.0570 -85.1000 193° South 511 588 32,000  Level FlightAware
02:53PM 43.9590 -85.1310 193° South 512 589 32,000  Level FlightAware
02:54PM 43.8760 -85.1580 193° South 513 590 32,000  Level FlightAware
02:55PM 43.7740 -85.1920 194° South 509 586 32,000  Level FlightAware
02:56PM 43.6840 -85.2470 204° Southwest 497 572 32,000  Level FlightAware
02:56PM 43.6000 -85.3280 215° Southwest 491 565 32,000  Level FlightAware
02:57PM 43.5280 -85.4010 216° Southwest 491 565 32,000  Level FlightAware
02:58PM 43.4550 -85.4750 216° Southwest 490 564 32,000  Level FlightAware
02:58PM 43.3710 -85.5590 216° Southwest 488 562 32,000 -120 Level FlightAware
02:59PM 43.3090 -85.6210 216° Southwest 489 563 31,900 -840 Descending FlightAware
03:00PM 43.1910 -85.7370 216° Southwest 485 558 30,700 -1,920 Descending FlightAware
03:01PM 43.1160 -85.8110 216° Southwest 489 563 28,600 -2,100 Descending FlightAware
03:01PM 43.0430 -85.8830 216° Southwest 482 555 27,800 -1,200 Descending FlightAware
03:02PM 42.9640 -85.9610 216° Southwest 479 551 27,000 -1,440 Descending FlightAware
03:03PM 42.8960 -86.0430 221° Southwest 459 528 25,900 -2,100 Descending FlightAware
03:04PM 42.8450 -86.1470 236° Southwest 440 506 24,100 -2,280 Descending FlightAware
03:04PM 42.8110 -86.2340 242° Southwest 430 495 22,800 -2,100 Descending FlightAware
03:05PM 42.7570 -86.3690 241° Southwest 416 479 20,800 -1,860 Descending FlightAware
03:06PM 42.7220 -86.4560 241° Southwest 410 472 19,900 -1,080 Descending FlightAware
03:06PM 42.6930 -86.5270 241° Southwest 409 471 19,400 -960 Descending FlightAware
03:07PM 42.6410 -86.6560 241° Southwest 403 464 18,500 -1,380 Descending FlightAware
03:08PM 42.6030 -86.7490 241° Southwest 395 455 17,400 -1,920 Descending FlightAware
03:09PM 42.5660 -86.8410 241° Southwest 390 449 15,800 -2,280 Descending FlightAware
03:09PM 42.5340 -86.9180 241° Southwest 385 443 14,400 -2,280 Descending FlightAware
03:10PM 42.4860 -87.0370 241° Southwest 379 436 12,300 -1,800 Descending FlightAware
03:11PM 42.4560 -87.1130 242° Southwest 374 430 11,000 -1,500 Descending FlightAware
03:12PM 42.4170 -87.2510 249° West 352 405 9,800 -1,020 Descending FlightAware
03:12PM 42.4000 -87.3130 250° West 350 403 9,800  Level FlightAware
03:13PM 42.3850 -87.3660 249° West 351 404 9,800  Level FlightAware
03:13PM 42.3700 -87.4200 249° West 351 404 9,800  Level FlightAware
03:14PM 42.3540 -87.4810 250° West 353 406 9,800  Level FlightAware
03:14PM 42.3330 -87.5340 242° Southwest 355 409 9,800  Level FlightAware
03:15PM 42.2800 -87.5970 221° Southwest 356 410 9,800  Level FlightAware
03:15PM 42.2440 -87.6350 218° Southwest 357 411 9,800  Level FlightAware
03:16PM 42.2090 -87.6710 217° Southwest 326 375 9,800 -120 Level FlightAware
03:16PM 42.1790 -87.7030 218° Southwest 302 348 9,700 -660 Descending FlightAware
03:17PM 42.1470 -87.7370 218° Southwest 294 338 9,200 -1,080 Descending FlightAware
03:17PM 42.1260 -87.7600 219° Southwest 293 337 8,700 -1,440 Descending FlightAware
03:17PM 42.1120 -87.7880 236° Southwest 290 334 8,300 -1,320 Descending FlightAware
03:18PM 42.1010 -87.8230 247° West 287 330 7,800 -1,440 Descending FlightAware
03:18PM 42.0820 -87.8820 247° West 283 326 7,000 -1,320 Descending FlightAware
03:19PM 42.0770 -87.8970 246° West 281 323 6,900 -300 Descending FlightAware
03:19PM 42.0600 -87.9540 248° West 280 322 6,800 -120 Descending FlightAware
03:20PM 42.0570 -87.9920 264° West 256 295 6,800  Level FlightAware
03:20PM 42.0550 -88.0310 266° West 236 272 6,800 -120 Level FlightAware
03:21PM 42.0550 -88.0430 270° West 231 266 6,700 -1,020 Descending FlightAware
03:21PM 42.0530 -88.1200 268° West 227 261 5,800 -1,500 Descending FlightAware
03:21PM 42.0520 -88.1360 265° West 223 257 5,600 -840 Descending FlightAware
03:22PM 42.0530 -88.1720 272° West 208 239 5,300 -960 Descending FlightAware
03:22PM 42.0460 -88.2060 255° West 190 219 4,800 -960 Descending FlightAware
03:22PM 42.0360 -88.2130 207° Southwest 180 207 4,600 -1,200 Descending FlightAware
03:23PM 42.0200 -88.2150 185° South 179 206 4,200 -1,140 Descending FlightAware
03:23PM 42.0000 -88.2140 178° South 182 209 3,800 -480 Descending FlightAware
03:24PM 41.9820 -88.1980 147° Southeast 180 207 3,800 120 Level FlightAware
03:24PM 41.9740 -88.1760 116° Southeast 177 204 3,900  Climbing FlightAware
03:24PM 41.9680 -88.1560 112° Southeast 180 207 3,800 -600 Descending FlightAware
03:24PM 41.9670 -88.1440 96° East 178 205 3,600 -1,080 Descending FlightAware
03:25PM 41.9680 -88.1110 88° East 176 203 3,100 -1,020 Descending FlightAware
03:25PM 41.9690 -88.0790 88° East 179 206 2,600 -960 Descending FlightAware
03:26PM 41.9690 -88.0330 90° East 174 200 2,000 -900 Descending FlightAware
03:27PM 41.9690 -88.0020 90° East 154 177 1,500 -840 Descending FlightAware
03:27PM 41.9690 -87.9760 90° East 146 168 1,200 -780 Descending FlightAware
03:28PM 41.9690 -87.9510 90° East 145 167 800 -840 Descending FlightAware
03:28PM 41.9690 -87.9300 90° East 145 167 500 -360 Descending FlightAware
03:28PM 41.9690 -87.9100 90° East 145 167 500  Level FlightAware
03:29PM 41.9690 -87.8990 90° East 39 45 -1,080 Descending FlightAware
03:29PM 41.9690 -87.8930 90° East 39 45  Level FlightAware